sensor_id;sensor_type;location;lat;lon;timestamp;P1;durP1;ratioP1;P2;durP2;ratioP2
483;SDS011;228;48.922;12.198;2023-08-17T04:02:35;11.32;;;10.23;;
483;SDS011;228;48.922;12.198;2023-08-17T04:05:03;13.18;;;11.88;;
483;SDS011;228;48.922;12.198;2023-08-17T04:07:29;12.88;;;11.57;;
483;SDS011;228;48.922;12.198;2023-08-17T04:09:55;12.60;;;11.35;;
483;SDS011;228;48.922;12.198;2023-08-17T04:12:21;15.40;;;13.95;;
483;SDS011;228;48.922;12.198;2023-08-17T07:09:28;12.95;;;11.65;;
483;SDS011;228;48.922;12.198;2023-08-17T07:12:21;13.32;;;12.07;;
483;SDS011;228;48.922;12.198;2023-08-17T07:15:00;14.43;;;11.93;;
483;SDS011;228;48.922;12.198;2023-08-17T07:17:27;12.68;;;11.23;;
483;SDS011;228;48.922;12.198;2023-08-17T07:19:55;12.63;;;11.50;;
483;SDS011;228;48.922;12.198;2023-08-17T07:22:21;12.75;;;11.45;;
483;SDS011;228;48.922;12.198;2023-08-17T07:24:49;12.68;;;11.43;;
483;SDS011;228;48.922;12.198;2023-08-17T07:27:19;12.68;;;11.40;;
483;SDS011;228;48.922;12.198;2023-08-17T07:29:45;11.63;;;10.57;;
483;SDS011;228;48.922;12.198;2023-08-17T07:32:20;11.88;;;10.77;;
483;SDS011;228;48.922;12.198;2023-08-17T07:34:46;11.90;;;10.80;;
483;SDS011;228;48.922;12.198;2023-08-17T07:37:16;11.60;;;10.50;;
483;SDS011;228;48.922;12.198;2023-08-17T07:39:45;11.80;;;10.60;;
483;SDS011;228;48.922;12.198;2023-08-17T07:42:15;11.75;;;10.65;;
483;SDS011;228;48.922;12.198;2023-08-17T07:44:42;11.40;;;10.20;;
483;SDS011;228;48.922;12.198;2023-08-17T07:47:08;10.77;;;9.77;;
483;SDS011;228;48.922;12.198;2023-08-17T07:49:40;11.43;;;10.27;;
483;SDS011;228;48.922;12.198;2023-08-17T07:52:07;13.10;;;10.93;;
483;SDS011;228;48.922;12.198;2023-08-17T07:54:33;10.90;;;9.90;;
483;SDS011;228;48.922;12.198;2023-08-17T07:57:00;10.60;;;9.60;;
483;SDS011;228;48.922;12.198;2023-08-17T07:59:30;11.30;;;10.23;;
483;SDS011;228;48.922;12.198;2023-08-17T08:02:14;13.52;;;9.57;;
483;SDS011;228;48.922;12.198;2023-08-17T08:04:43;10.38;;;9.32;;
483;SDS011;228;48.922;12.198;2023-08-17T08:07:09;10.02;;;9.13;;
483;SDS011;228;48.922;12.198;2023-08-17T08:09:39;9.65;;;8.82;;
483;SDS011;228;48.922;12.198;2023-08-17T08:12:05;9.00;;;8.20;;
483;SDS011;228;48.922;12.198;2023-08-17T08:14:33;9.90;;;9.00;;
483;SDS011;228;48.922;12.198;2023-08-17T08:17:00;9.38;;;8.50;;
483;SDS011;228;48.922;12.198;2023-08-17T08:19:26;9.00;;;8.25;;
483;SDS011;228;48.922;12.198;2023-08-17T08:21:52;8.75;;;7.95;;
483;SDS011;228;48.922;12.198;2023-08-17T08:24:27;9.52;;;8.73;;
483;SDS011;228;48.922;12.198;2023-08-17T08:26:59;9.25;;;8.13;;
483;SDS011;228;48.922;12.198;2023-08-17T08:29:32;9.25;;;8.48;;
483;SDS011;228;48.922;12.198;2023-08-17T08:32:03;8.68;;;7.88;;
483;SDS011;228;48.922;12.198;2023-08-17T08:34:41;9.25;;;8.35;;
483;SDS011;228;48.922;12.198;2023-08-17T08:38:03;9.35;;;8.43;;
483;SDS011;228;48.922;12.198;2023-08-17T08:40:29;9.43;;;8.52;;
483;SDS011;228;48.922;12.198;2023-08-17T08:42:56;9.30;;;8.50;;
483;SDS011;228;48.922;12.198;2023-08-17T08:45:23;8.77;;;8.07;;
483;SDS011;228;48.922;12.198;2023-08-17T08:47:53;9.32;;;8.32;;
483;SDS011;228;48.922;12.198;2023-08-17T08:50:20;8.88;;;8.15;;
483;SDS011;228;48.922;12.198;2023-08-17T08:52:50;9.02;;;8.15;;
483;SDS011;228;48.922;12.198;2023-08-17T08:55:29;8.98;;;8.25;;
483;SDS011;228;48.922;12.198;2023-08-17T08:58:07;8.70;;;7.90;;
483;SDS011;228;48.922;12.198;2023-08-17T09:00:36;8.80;;;8.10;;
483;SDS011;228;48.922;12.198;2023-08-17T09:03:06;8.98;;;8.07;;
483;SDS011;228;48.922;12.198;2023-08-17T09:08:34;9.05;;;8.27;;
483;SDS011;228;48.922;12.198;2023-08-17T09:11:03;9.23;;;8.32;;
483;SDS011;228;48.922;12.198;2023-08-17T09:23:11;9.63;;;8.55;;
483;SDS011;228;48.922;12.198;2023-08-17T09:25:50;12.25;;;9.25;;
483;SDS011;228;48.922;12.198;2023-08-17T09:28:31;10.25;;;8.50;;
483;SDS011;228;48.922;12.198;2023-08-17T09:31:01;9.50;;;8.60;;
483;SDS011;228;48.922;12.198;2023-08-17T09:33:31;9.68;;;8.73;;
483;SDS011;228;48.922;12.198;2023-08-17T09:35:58;9.55;;;8.55;;
483;SDS011;228;48.922;12.198;2023-08-17T09:38:27;9.15;;;8.25;;
483;SDS011;228;48.922;12.198;2023-08-17T09:43:49;7.85;;;7.15;;
483;SDS011;228;48.922;12.198;2023-08-17T09:46:19;8.75;;;8.00;;
483;SDS011;228;48.922;12.198;2023-08-17T09:52:31;8.68;;;7.95;;
483;SDS011;228;48.922;12.198;2023-08-17T09:55:00;9.18;;;8.27;;
483;SDS011;228;48.922;12.198;2023-08-17T09:57:29;9.63;;;8.55;;
483;SDS011;228;48.922;12.198;2023-08-17T10:00:13;10.20;;;8.80;;
483;SDS011;228;48.922;12.198;2023-08-17T10:02:40;9.95;;;8.50;;
483;SDS011;228;48.922;12.198;2023-08-17T10:05:08;9.65;;;8.30;;
483;SDS011;228;48.922;12.198;2023-08-17T10:11:46;9.23;;;8.30;;
483;SDS011;228;48.922;12.198;2023-08-17T10:14:52;9.18;;;8.30;;
483;SDS011;228;48.922;12.198;2023-08-17T10:17:33;9.32;;;8.45;;
483;SDS011;228;48.922;12.198;2023-08-17T10:20:19;9.02;;;8.13;;
483;SDS011;228;48.922;12.198;2023-08-17T10:22:51;8.82;;;7.93;;
483;SDS011;228;48.922;12.198;2023-08-17T10:25:24;8.52;;;7.82;;
483;SDS011;228;48.922;12.198;2023-08-17T10:27:52;8.68;;;7.78;;
483;SDS011;228;48.922;12.198;2023-08-17T10:30:20;9.02;;;8.32;;
483;SDS011;228;48.922;12.198;2023-08-17T10:32:46;8.43;;;7.63;;
483;SDS011;228;48.922;12.198;2023-08-17T10:35:13;9.25;;;8.40;;
483;SDS011;228;48.922;12.198;2023-08-17T10:37:39;8.98;;;8.30;;
483;SDS011;228;48.922;12.198;2023-08-17T10:40:06;9.10;;;8.20;;
483;SDS011;228;48.922;12.198;2023-08-17T10:42:36;8.75;;;7.95;;
483;SDS011;228;48.922;12.198;2023-08-17T10:45:35;9.05;;;8.15;;
483;SDS011;228;48.922;12.198;2023-08-17T10:50:31;9.60;;;8.55;;
483;SDS011;228;48.922;12.198;2023-08-17T10:52:58;8.85;;;8.02;;
483;SDS011;228;48.922;12.198;2023-08-17T10:55:37;8.57;;;7.88;;
483;SDS011;228;48.922;12.198;2023-08-17T10:58:09;9.23;;;8.43;;
483;SDS011;228;48.922;12.198;2023-08-17T11:00:39;8.63;;;7.85;;
483;SDS011;228;48.922;12.198;2023-08-17T11:03:17;8.55;;;7.78;;
483;SDS011;228;48.922;12.198;2023-08-17T11:08:29;8.85;;;8.15;;
483;SDS011;228;48.922;12.198;2023-08-17T11:11:07;8.65;;;7.95;;
483;SDS011;228;48.922;12.198;2023-08-17T11:13:43;8.52;;;7.68;;
483;SDS011;228;48.922;12.198;2023-08-17T11:16:11;9.10;;;8.25;;
483;SDS011;228;48.922;12.198;2023-08-17T11:18:39;9.40;;;8.60;;
483;SDS011;228;48.922;12.198;2023-08-17T11:21:06;8.82;;;8.13;;
483;SDS011;228;48.922;12.198;2023-08-17T11:23:35;8.88;;;8.07;;
483;SDS011;228;48.922;12.198;2023-08-17T11:26:03;9.05;;;8.32;;
483;SDS011;228;48.922;12.198;2023-08-17T11:28:30;8.55;;;7.72;;
483;SDS011;228;48.922;12.198;2023-08-17T11:31:09;8.75;;;7.95;;
483;SDS011;228;48.922;12.198;2023-08-17T11:33:38;8.23;;;7.43;;
483;SDS011;228;48.922;12.198;2023-08-17T11:36:06;8.23;;;7.53;;
483;SDS011;228;48.922;12.198;2023-08-17T11:38:37;8.15;;;7.35;;
483;SDS011;228;48.922;12.198;2023-08-17T11:41:05;8.10;;;7.35;;
483;SDS011;228;48.922;12.198;2023-08-17T11:43:33;8.10;;;7.50;;
483;SDS011;228;48.922;12.198;2023-08-17T11:46:02;8.43;;;7.72;;
483;SDS011;228;48.922;12.198;2023-08-17T11:48:30;8.27;;;7.60;;
483;SDS011;228;48.922;12.198;2023-08-17T11:50:56;8.85;;;8.02;;
483;SDS011;228;48.922;12.198;2023-08-17T11:53:25;8.32;;;7.63;;
483;SDS011;228;48.922;12.198;2023-08-17T11:56:02;8.18;;;7.38;;
483;SDS011;228;48.922;12.198;2023-08-17T12:01:09;8.77;;;7.97;;
483;SDS011;228;48.922;12.198;2023-08-17T12:03:36;8.30;;;7.68;;
483;SDS011;228;48.922;12.198;2023-08-17T12:06:06;8.40;;;7.63;;
483;SDS011;228;48.922;12.198;2023-08-17T12:08:32;9.52;;;7.82;;
483;SDS011;228;48.922;12.198;2023-08-17T12:11:04;8.63;;;7.90;;
483;SDS011;228;48.922;12.198;2023-08-17T12:13:32;9.35;;;8.45;;
483;SDS011;228;48.922;12.198;2023-08-17T12:16:02;8.05;;;7.35;;
483;SDS011;228;48.922;12.198;2023-08-17T12:18:31;8.50;;;7.80;;
483;SDS011;228;48.922;12.198;2023-08-17T12:20:58;8.88;;;7.97;;
483;SDS011;228;48.922;12.198;2023-08-17T12:23:24;7.93;;;6.88;;
483;SDS011;228;48.922;12.198;2023-08-17T12:25:54;8.18;;;7.50;;
483;SDS011;228;48.922;12.198;2023-08-17T12:28:22;8.23;;;7.60;;
483;SDS011;228;48.922;12.198;2023-08-17T12:30:56;8.80;;;8.10;;
483;SDS011;228;48.922;12.198;2023-08-17T12:33:25;8.25;;;7.50;;
483;SDS011;228;48.922;12.198;2023-08-17T12:35:56;7.30;;;6.80;;
483;SDS011;228;48.922;12.198;2023-08-17T12:38:25;7.80;;;7.30;;
483;SDS011;228;48.922;12.198;2023-08-17T12:40:52;8.18;;;7.47;;
483;SDS011;228;48.922;12.198;2023-08-17T12:43:18;7.65;;;7.05;;
483;SDS011;228;48.922;12.198;2023-08-17T12:45:44;8.38;;;7.57;;
483;SDS011;228;48.922;12.198;2023-08-17T12:48:10;7.72;;;7.07;;
483;SDS011;228;48.922;12.198;2023-08-17T12:50:36;8.02;;;7.47;;
483;SDS011;228;48.922;12.198;2023-08-17T12:53:05;8.30;;;7.38;;
483;SDS011;228;48.922;12.198;2023-08-17T12:55:33;7.85;;;7.05;;
483;SDS011;228;48.922;12.198;2023-08-17T12:58:00;7.70;;;7.10;;
483;SDS011;228;48.922;12.198;2023-08-17T13:00:26;7.70;;;6.80;;
483;SDS011;228;48.922;12.198;2023-08-17T13:02:54;7.65;;;7.05;;
483;SDS011;228;48.922;12.198;2023-08-17T13:05:20;7.43;;;6.82;;
483;SDS011;228;48.922;12.198;2023-08-17T13:07:46;7.90;;;7.20;;
483;SDS011;228;48.922;12.198;2023-08-17T13:10:12;7.60;;;7.00;;
483;SDS011;228;48.922;12.198;2023-08-17T13:12:38;7.40;;;6.90;;
483;SDS011;228;48.922;12.198;2023-08-17T13:15:04;7.65;;;6.97;;
483;SDS011;228;48.922;12.198;2023-08-17T13:17:31;7.93;;;7.00;;
483;SDS011;228;48.922;12.198;2023-08-17T13:19:57;7.60;;;6.80;;
483;SDS011;228;48.922;12.198;2023-08-17T13:22:23;7.65;;;7.07;;
483;SDS011;228;48.922;12.198;2023-08-17T13:24:49;7.90;;;7.30;;
483;SDS011;228;48.922;12.198;2023-08-17T13:27:15;8.45;;;6.90;;
483;SDS011;228;48.922;12.198;2023-08-17T13:29:41;7.70;;;6.93;;
483;SDS011;228;48.922;12.198;2023-08-17T13:32:07;7.10;;;6.50;;
483;SDS011;228;48.922;12.198;2023-08-17T13:34:33;7.40;;;6.70;;
483;SDS011;228;48.922;12.198;2023-08-17T13:36:59;6.97;;;6.47;;
483;SDS011;228;48.922;12.198;2023-08-17T13:39:28;7.60;;;6.85;;
483;SDS011;228;48.922;12.198;2023-08-17T13:41:54;7.30;;;6.60;;
483;SDS011;228;48.922;12.198;2023-08-17T13:44:20;7.00;;;6.50;;
483;SDS011;228;48.922;12.198;2023-08-17T13:46:46;7.05;;;6.35;;
483;SDS011;228;48.922;12.198;2023-08-17T13:49:12;6.90;;;6.40;;
483;SDS011;228;48.922;12.198;2023-08-17T13:51:38;7.45;;;6.75;;
483;SDS011;228;48.922;12.198;2023-08-17T13:54:06;7.00;;;6.32;;
483;SDS011;228;48.922;12.198;2023-08-17T13:56:32;9.82;;;6.57;;
483;SDS011;228;48.922;12.198;2023-08-17T13:58:58;7.13;;;6.43;;
483;SDS011;228;48.922;12.198;2023-08-17T14:01:24;6.65;;;6.15;;
483;SDS011;228;48.922;12.198;2023-08-17T14:03:50;6.97;;;6.30;;
483;SDS011;228;48.922;12.198;2023-08-17T14:06:16;6.90;;;6.20;;
483;SDS011;228;48.922;12.198;2023-08-17T14:08:43;6.78;;;6.18;;
483;SDS011;228;48.922;12.198;2023-08-17T14:11:11;6.93;;;6.22;;
483;SDS011;228;48.922;12.198;2023-08-17T14:13:37;6.90;;;6.20;;
483;SDS011;228;48.922;12.198;2023-08-17T14:16:04;6.75;;;6.25;;
483;SDS011;228;48.922;12.198;2023-08-17T14:18:30;6.97;;;6.32;;
483;SDS011;228;48.922;12.198;2023-08-17T14:20:59;6.57;;;5.97;;
483;SDS011;228;48.922;12.198;2023-08-17T14:23:25;6.85;;;6.25;;
483;SDS011;228;48.922;12.198;2023-08-17T14:25:51;6.45;;;5.85;;
483;SDS011;228;48.922;12.198;2023-08-17T14:28:17;6.72;;;6.20;;
483;SDS011;228;48.922;12.198;2023-08-17T14:30:46;6.50;;;6.00;;
483;SDS011;228;48.922;12.198;2023-08-17T14:33:12;6.30;;;5.80;;
483;SDS011;228;48.922;12.198;2023-08-17T14:35:39;6.75;;;6.10;;
483;SDS011;228;48.922;12.198;2023-08-17T14:38:05;6.97;;;6.40;;
483;SDS011;228;48.922;12.198;2023-08-17T14:40:35;6.60;;;6.05;;
483;SDS011;228;48.922;12.198;2023-08-17T14:43:01;6.45;;;5.95;;
483;SDS011;228;48.922;12.198;2023-08-17T14:45:27;6.82;;;6.20;;
483;SDS011;228;48.922;12.198;2023-08-17T14:47:53;6.60;;;5.88;;
483;SDS011;228;48.922;12.198;2023-08-17T14:50:19;6.40;;;5.93;;
483;SDS011;228;48.922;12.198;2023-08-17T14:52:48;6.97;;;6.30;;
483;SDS011;228;48.922;12.198;2023-08-17T14:55:14;6.38;;;5.95;;
483;SDS011;228;48.922;12.198;2023-08-17T14:57:40;7.07;;;6.40;;
483;SDS011;228;48.922;12.198;2023-08-17T15:00:09;8.57;;;6.18;;
483;SDS011;228;48.922;12.198;2023-08-17T15:02:36;6.93;;;6.35;;
483;SDS011;228;48.922;12.198;2023-08-17T15:05:02;6.78;;;6.28;;
483;SDS011;228;48.922;12.198;2023-08-17T15:07:28;7.45;;;6.85;;
483;SDS011;228;48.922;12.198;2023-08-17T15:09:54;6.75;;;6.15;;
483;SDS011;228;48.922;12.198;2023-08-17T15:12:20;6.60;;;5.90;;
483;SDS011;228;48.922;12.198;2023-08-17T15:14:46;6.70;;;6.18;;
483;SDS011;228;48.922;12.198;2023-08-17T15:17:12;6.80;;;6.30;;
483;SDS011;228;48.922;12.198;2023-08-17T15:19:40;7.03;;;6.47;;
483;SDS011;228;48.922;12.198;2023-08-17T15:22:06;6.68;;;6.13;;
483;SDS011;228;48.922;12.198;2023-08-17T15:24:32;7.30;;;6.60;;
483;SDS011;228;48.922;12.198;2023-08-17T15:26:59;6.78;;;6.10;;
483;SDS011;228;48.922;12.198;2023-08-17T15:29:27;7.57;;;6.55;;
483;SDS011;228;48.922;12.198;2023-08-17T15:31:53;6.68;;;6.20;;
483;SDS011;228;48.922;12.198;2023-08-17T15:34:19;6.85;;;6.18;;
483;SDS011;228;48.922;12.198;2023-08-17T15:36:48;7.50;;;6.90;;
483;SDS011;228;48.922;12.198;2023-08-17T15:39:14;7.20;;;6.50;;
483;SDS011;228;48.922;12.198;2023-08-17T15:41:40;6.90;;;6.32;;
483;SDS011;228;48.922;12.198;2023-08-17T15:44:06;6.45;;;5.88;;
483;SDS011;228;48.922;12.198;2023-08-17T15:46:32;6.30;;;5.80;;
483;SDS011;228;48.922;12.198;2023-08-17T15:48:58;6.38;;;5.78;;
483;SDS011;228;48.922;12.198;2023-08-17T15:51:24;6.50;;;5.90;;
483;SDS011;228;48.922;12.198;2023-08-17T15:53:53;6.22;;;5.82;;
483;SDS011;228;48.922;12.198;2023-08-17T15:56:20;6.53;;;5.88;;
483;SDS011;228;48.922;12.198;2023-08-17T15:58:48;6.57;;;6.07;;
483;SDS011;228;48.922;12.198;2023-08-17T16:01:17;6.30;;;5.70;;
483;SDS011;228;48.922;12.198;2023-08-17T16:03:44;6.63;;;6.13;;
483;SDS011;228;48.922;12.198;2023-08-17T16:06:10;6.38;;;5.75;;
483;SDS011;228;48.922;12.198;2023-08-17T16:08:37;7.97;;;5.85;;
483;SDS011;228;48.922;12.198;2023-08-17T16:11:03;7.30;;;6.60;;
483;SDS011;228;48.922;12.198;2023-08-17T16:13:29;6.22;;;5.75;;
483;SDS011;228;48.922;12.198;2023-08-17T16:15:56;6.25;;;5.75;;
483;SDS011;228;48.922;12.198;2023-08-17T16:18:22;7.07;;;6.55;;
483;SDS011;228;48.922;12.198;2023-08-17T16:20:48;6.72;;;5.93;;
483;SDS011;228;48.922;12.198;2023-08-17T16:23:16;6.88;;;5.88;;
483;SDS011;228;48.922;12.198;2023-08-17T16:25:43;7.20;;;5.63;;
483;SDS011;228;48.922;12.198;2023-08-17T16:28:09;6.40;;;5.90;;
483;SDS011;228;48.922;12.198;2023-08-17T16:30:35;7.45;;;5.75;;
483;SDS011;228;48.922;12.198;2023-08-17T16:33:02;5.95;;;5.50;;
483;SDS011;228;48.922;12.198;2023-08-17T16:35:29;6.47;;;5.97;;
483;SDS011;228;48.922;12.198;2023-08-17T16:37:56;6.32;;;5.82;;
483;SDS011;228;48.922;12.198;2023-08-17T16:40:23;6.50;;;5.80;;
483;SDS011;228;48.922;12.198;2023-08-17T16:42:49;6.00;;;5.50;;
483;SDS011;228;48.922;12.198;2023-08-17T16:45:15;7.82;;;5.85;;
483;SDS011;228;48.922;12.198;2023-08-17T16:47:43;7.75;;;5.95;;
483;SDS011;228;48.922;12.198;2023-08-17T16:50:11;6.57;;;5.97;;
483;SDS011;228;48.922;12.198;2023-08-17T16:52:37;8.18;;;6.03;;
483;SDS011;228;48.922;12.198;2023-08-17T16:55:05;7.32;;;6.50;;
483;SDS011;228;48.922;12.198;2023-08-17T16:57:32;5.97;;;5.43;;
483;SDS011;228;48.922;12.198;2023-08-17T17:00:00;5.90;;;5.40;;
483;SDS011;228;48.922;12.198;2023-08-17T17:02:26;6.68;;;5.47;;
483;SDS011;228;48.922;12.198;2023-08-17T17:04:52;6.05;;;5.55;;
483;SDS011;228;48.922;12.198;2023-08-17T17:07:18;5.90;;;5.40;;
483;SDS011;228;48.922;12.198;2023-08-17T17:09:44;6.72;;;5.82;;
483;SDS011;228;48.922;12.198;2023-08-17T17:12:12;6.85;;;5.80;;
483;SDS011;228;48.922;12.198;2023-08-17T17:14:38;6.30;;;5.80;;
483;SDS011;228;48.922;12.198;2023-08-17T17:17:05;6.88;;;5.68;;
483;SDS011;228;48.922;12.198;2023-08-17T17:19:31;6.50;;;5.90;;
483;SDS011;228;48.922;12.198;2023-08-17T17:21:57;6.25;;;5.65;;
483;SDS011;228;48.922;12.198;2023-08-17T17:24:23;6.28;;;5.68;;
483;SDS011;228;48.922;12.198;2023-08-17T17:26:50;5.93;;;5.43;;
483;SDS011;228;48.922;12.198;2023-08-17T17:29:16;5.97;;;5.57;;
483;SDS011;228;48.922;12.198;2023-08-17T17:31:42;6.25;;;5.65;;
483;SDS011;228;48.922;12.198;2023-08-17T17:34:08;6.30;;;5.70;;
483;SDS011;228;48.922;12.198;2023-08-17T17:36:34;6.32;;;5.65;;
483;SDS011;228;48.922;12.198;2023-08-17T17:39:00;6.50;;;5.75;;
483;SDS011;228;48.922;12.198;2023-08-17T17:41:26;6.88;;;6.18;;
483;SDS011;228;48.922;12.198;2023-08-17T17:43:52;6.55;;;5.88;;
483;SDS011;228;48.922;12.198;2023-08-17T17:46:18;6.25;;;5.75;;
483;SDS011;228;48.922;12.198;2023-08-17T17:48:44;7.22;;;6.53;;
483;SDS011;228;48.922;12.198;2023-08-17T17:51:11;6.53;;;5.95;;
483;SDS011;228;48.922;12.198;2023-08-17T17:53:37;6.50;;;5.88;;
483;SDS011;228;48.922;12.198;2023-08-17T17:56:03;6.93;;;6.22;;
483;SDS011;228;48.922;12.198;2023-08-17T17:58:29;7.07;;;6.38;;
483;SDS011;228;48.922;12.198;2023-08-17T18:00:55;7.18;;;6.40;;
483;SDS011;228;48.922;12.198;2023-08-17T18:03:22;6.70;;;6.10;;
483;SDS011;228;48.922;12.198;2023-08-17T18:05:48;7.35;;;6.10;;
483;SDS011;228;48.922;12.198;2023-08-17T18:08:15;6.22;;;5.53;;
483;SDS011;228;48.922;12.198;2023-08-17T18:10:42;6.53;;;6.03;;
483;SDS011;228;48.922;12.198;2023-08-17T18:13:09;9.05;;;6.72;;
483;SDS011;228;48.922;12.198;2023-08-17T18:15:36;8.60;;;7.18;;
483;SDS011;228;48.922;12.198;2023-08-17T18:18:04;8.00;;;6.18;;
483;SDS011;228;48.922;12.198;2023-08-17T18:20:31;7.10;;;6.50;;
483;SDS011;228;48.922;12.198;2023-08-17T18:22:57;7.55;;;6.57;;
483;SDS011;228;48.922;12.198;2023-08-17T18:25:24;12.70;;;7.30;;
483;SDS011;228;48.922;12.198;2023-08-17T18:27:50;6.93;;;6.25;;
483;SDS011;228;48.922;12.198;2023-08-17T18:30:16;5.25;;;4.75;;
483;SDS011;228;48.922;12.198;2023-08-17T18:32:43;4.85;;;4.43;;
483;SDS011;228;48.922;12.198;2023-08-17T18:35:09;4.80;;;4.30;;
483;SDS011;228;48.922;12.198;2023-08-17T18:37:35;4.45;;;4.05;;
483;SDS011;228;48.922;12.198;2023-08-17T18:40:02;4.78;;;3.97;;
483;SDS011;228;48.922;12.198;2023-08-17T18:42:28;4.53;;;4.13;;
483;SDS011;228;48.922;12.198;2023-08-17T18:44:54;6.35;;;3.97;;
483;SDS011;228;48.922;12.198;2023-08-17T18:47:21;4.75;;;4.20;;
483;SDS011;228;48.922;12.198;2023-08-17T18:49:48;4.60;;;4.20;;
483;SDS011;228;48.922;12.198;2023-08-17T18:52:16;4.30;;;3.92;;
483;SDS011;228;48.922;12.198;2023-08-17T18:54:58;6.50;;;4.45;;
483;SDS011;228;48.922;12.198;2023-08-17T18:57:26;4.70;;;4.30;;
483;SDS011;228;48.922;12.198;2023-08-17T18:59:52;6.00;;;4.90;;
483;SDS011;228;48.922;12.198;2023-08-17T19:02:18;4.65;;;4.30;;
483;SDS011;228;48.922;12.198;2023-08-17T19:04:45;5.45;;;4.95;;
483;SDS011;228;48.922;12.198;2023-08-17T19:07:12;5.30;;;4.80;;
483;SDS011;228;48.922;12.198;2023-08-17T19:09:39;4.53;;;4.13;;
483;SDS011;228;48.922;12.198;2023-08-17T19:12:06;6.47;;;4.38;;
483;SDS011;228;48.922;12.198;2023-08-17T19:14:32;6.07;;;4.47;;
483;SDS011;228;48.922;12.198;2023-08-17T19:16:58;7.95;;;4.72;;
483;SDS011;228;48.922;12.198;2023-08-17T19:19:24;4.82;;;4.43;;
483;SDS011;228;48.922;12.198;2023-08-17T19:21:50;5.78;;;4.15;;
483;SDS011;228;48.922;12.198;2023-08-17T19:24:16;6.05;;;4.38;;
483;SDS011;228;48.922;12.198;2023-08-17T19:26:42;4.85;;;4.30;;
483;SDS011;228;48.922;12.198;2023-08-17T19:29:08;4.43;;;4.00;;
483;SDS011;228;48.922;12.198;2023-08-17T19:31:34;3.83;;;3.53;;
483;SDS011;228;48.922;12.198;2023-08-17T19:34:03;5.05;;;3.20;;
483;SDS011;228;48.922;12.198;2023-08-17T19:36:32;3.97;;;3.40;;
483;SDS011;228;48.922;12.198;2023-08-17T19:38:59;3.50;;;3.13;;
483;SDS011;228;48.922;12.198;2023-08-17T19:41:25;3.75;;;3.40;;
483;SDS011;228;48.922;12.198;2023-08-17T19:43:51;3.95;;;3.42;;
483;SDS011;228;48.922;12.198;2023-08-17T19:46:17;4.18;;;3.40;;
483;SDS011;228;48.922;12.198;2023-08-17T19:48:43;4.30;;;3.90;;
483;SDS011;228;48.922;12.198;2023-08-17T19:51:09;4.35;;;3.67;;
483;SDS011;228;48.922;12.198;2023-08-17T19:53:35;4.07;;;3.67;;
483;SDS011;228;48.922;12.198;2023-08-17T19:56:01;6.13;;;4.35;;
483;SDS011;228;48.922;12.198;2023-08-17T19:58:28;5.07;;;4.55;;
483;SDS011;228;48.922;12.198;2023-08-17T20:00:54;5.22;;;4.72;;
483;SDS011;228;48.922;12.198;2023-08-17T20:03:20;5.00;;;4.55;;
483;SDS011;228;48.922;12.198;2023-08-17T20:05:46;5.30;;;4.80;;
483;SDS011;228;48.922;12.198;2023-08-17T20:08:12;5.57;;;5.07;;
483;SDS011;228;48.922;12.198;2023-08-17T20:10:39;5.43;;;4.93;;
483;SDS011;228;48.922;12.198;2023-08-17T20:13:05;6.00;;;4.63;;
483;SDS011;228;48.922;12.198;2023-08-17T20:15:31;5.32;;;4.60;;
483;SDS011;228;48.922;12.198;2023-08-17T20:17:57;5.30;;;4.80;;
483;SDS011;228;48.922;12.198;2023-08-17T20:20:23;5.30;;;4.45;;
483;SDS011;228;48.922;12.198;2023-08-17T20:22:50;5.22;;;4.72;;
483;SDS011;228;48.922;12.198;2023-08-17T20:25:16;7.50;;;5.47;;
483;SDS011;228;48.922;12.198;2023-08-17T20:27:42;5.50;;;5.00;;
483;SDS011;228;48.922;12.198;2023-08-17T20:30:09;7.22;;;5.38;;
483;SDS011;228;48.922;12.198;2023-08-17T20:32:37;5.80;;;5.30;;
483;SDS011;228;48.922;12.198;2023-08-17T20:35:03;5.88;;;5.35;;
483;SDS011;228;48.922;12.198;2023-08-17T20:37:33;6.40;;;5.50;;
483;SDS011;228;48.922;12.198;2023-08-17T20:39:59;6.82;;;5.72;;
483;SDS011;228;48.922;12.198;2023-08-17T20:42:25;6.18;;;5.57;;
483;SDS011;228;48.922;12.198;2023-08-17T20:44:51;6.00;;;5.40;;
483;SDS011;228;48.922;12.198;2023-08-17T20:47:17;6.47;;;5.88;;
483;SDS011;228;48.922;12.198;2023-08-17T20:49:43;6.15;;;5.65;;
483;SDS011;228;48.922;12.198;2023-08-17T20:52:10;10.38;;;5.70;;
483;SDS011;228;48.922;12.198;2023-08-17T20:54:37;6.57;;;5.57;;
483;SDS011;228;48.922;12.198;2023-08-17T20:57:03;6.78;;;6.15;;
483;SDS011;228;48.922;12.198;2023-08-17T20:59:30;5.55;;;5.05;;
483;SDS011;228;48.922;12.198;2023-08-17T21:01:57;6.70;;;5.43;;
483;SDS011;228;48.922;12.198;2023-08-17T21:04:23;5.90;;;5.20;;
483;SDS011;228;48.922;12.198;2023-08-17T21:06:49;6.88;;;5.53;;
483;SDS011;228;48.922;12.198;2023-08-17T21:09:15;6.28;;;5.50;;
483;SDS011;228;48.922;12.198;2023-08-17T21:11:43;6.70;;;5.15;;
483;SDS011;228;48.922;12.198;2023-08-17T21:14:09;6.10;;;5.50;;
